createdAt,value
2022-08-18T00:02:25.072Z,23.17
2022-08-18T00:04:57.215Z,26.73
2022-08-18T00:07:29.685Z,19.57
2022-08-18T00:09:56.530Z,23.37
2022-08-18T00:12:38.696Z,30.50
2022-08-18T00:15:07.614Z,28.43
2022-08-18T00:17:35.375Z,23.63
2022-08-18T00:20:03.012Z,27.00
2022-08-18T00:22:29.616Z,23.97
2022-08-18T00:24:57.064Z,28.33
2022-08-18T00:27:28.731Z,24.57
2022-08-18T00:29:58.298Z,22.33
2022-08-18T00:32:38.245Z,27.50
2022-08-18T00:35:14.217Z,25.90
2022-08-18T00:37:41.571Z,22.90
2022-08-18T00:40:10.850Z,26.90
2022-08-18T00:42:46.752Z,24.60
2022-08-18T00:45:27.281Z,26.30
2022-08-18T00:47:54.727Z,23.37
2022-08-18T00:50:26.093Z,23.97
2022-08-18T00:53:36.083Z,24.87
2022-08-18T00:56:08.831Z,28.47
2022-08-18T00:58:42.596Z,26.30
2022-08-18T01:01:09.888Z,27.73
2022-08-18T01:03:39.797Z,26.00
2022-08-18T01:06:15.651Z,26.00
2022-08-18T01:08:42.734Z,23.83
2022-08-18T01:11:10.582Z,24.50
2022-08-18T01:13:38.717Z,26.13
2022-08-18T01:16:25.544Z,20.30
2022-08-18T01:19:11.060Z,27.13
2022-08-18T01:21:51.006Z,25.73
2022-08-18T01:24:21.919Z,28.80
2022-08-18T01:26:51.771Z,30.63
2022-08-18T01:29:19.620Z,29.70
2022-08-18T01:31:54.886Z,27.00
2022-08-18T01:34:24.733Z,28.67
2022-08-18T01:36:52.560Z,25.70
2022-08-18T01:41:22.317Z,24.57
2022-08-18T01:42:06.717Z,32.10
2022-08-18T01:44:33.699Z,30.93
2022-08-18T01:47:00.185Z,31.90
2022-08-18T01:49:28.768Z,27.87
2022-08-18T01:51:58.095Z,26.60
2022-08-18T01:54:24.716Z,25.07
2022-08-18T01:56:52.520Z,28.67
2022-08-18T01:59:19.017Z,24.57
2022-08-18T02:01:52.768Z,25.13
2022-08-18T02:04:34.999Z,25.70
2022-08-18T02:07:06.550Z,30.33
2022-08-18T02:09:33.602Z,31.63
2022-08-18T02:12:01.121Z,44.73
2022-08-18T02:14:27.755Z,28.07
2022-08-18T02:17:01.419Z,24.07
2022-08-18T02:19:32.456Z,31.17
2022-08-18T02:21:59.068Z,25.47
2022-08-18T02:24:25.543Z,22.93
2022-08-18T02:26:52.041Z,27.00
2022-08-18T02:29:18.601Z,32.17
2022-08-18T02:31:45.068Z,28.77
2022-08-18T02:34:11.557Z,30.73
2022-08-18T02:36:38.096Z,26.40
2022-08-18T02:39:04.795Z,25.07
2022-08-18T02:41:31.418Z,28.67
2022-08-18T02:43:58.778Z,25.67
2022-08-18T02:46:31.043Z,31.30
2022-08-18T02:48:59.846Z,29.47
2022-08-18T02:51:26.734Z,27.00
2022-08-18T02:53:53.979Z,31.40
2022-08-18T02:56:33.009Z,30.87
2022-08-18T02:59:14.913Z,27.47
2022-08-18T03:01:46.701Z,24.93
2022-08-18T03:04:16.007Z,30.83
2022-08-18T03:06:44.304Z,22.60
2022-08-18T03:09:13.526Z,26.70
2022-08-18T03:11:40.396Z,26.20
2022-08-18T03:14:08.679Z,33.63
2022-08-18T03:16:40.494Z,31.90
2022-08-18T03:19:20.634Z,33.83
2022-08-18T03:21:48.138Z,26.87
2022-08-18T03:24:19.668Z,29.63
2022-08-18T03:26:49.859Z,28.57
2022-08-18T03:29:16.484Z,25.97
2022-08-18T03:31:44.500Z,28.07
2022-08-18T03:34:11.995Z,27.43
2022-08-18T03:36:38.589Z,24.40
2022-08-18T03:39:08.046Z,29.87
2022-08-18T03:41:43.717Z,32.40
2022-08-18T03:44:23.871Z,33.17
2022-08-18T03:46:50.669Z,30.67
2022-08-18T03:49:18.856Z,33.73
2022-08-18T03:51:49.322Z,38.67
2022-08-18T03:54:17.689Z,31.33
2022-08-18T03:56:46.049Z,26.77
2022-08-18T03:59:19.865Z,28.97
2022-08-18T04:01:48.329Z,30.87
2022-08-18T04:04:19.232Z,29.80
2022-08-18T04:06:50.428Z,35.30
2022-08-18T04:09:18.204Z,28.87
2022-08-18T04:11:44.784Z,32.67
2022-08-18T04:14:14.326Z,30.57
2022-08-18T04:16:41.604Z,33.10
2022-08-18T04:19:09.552Z,31.03
2022-08-18T04:21:39.305Z,33.77
2022-08-18T04:24:07.486Z,32.63
2022-08-18T04:26:37.012Z,33.70
2022-08-18T04:29:05.274Z,33.73
2022-08-18T04:31:32.151Z,31.67
2022-08-18T04:34:00.176Z,35.53
2022-08-18T04:36:27.790Z,27.17
2022-08-18T04:38:56.468Z,30.00
2022-08-18T04:41:26.276Z,31.23
2022-08-18T04:44:00.944Z,32.93
2022-08-18T04:46:28.207Z,35.90
2022-08-18T04:48:59.265Z,32.67
2022-08-18T04:52:36.669Z,34.10
2022-08-18T04:54:16.043Z,31.73
2022-08-18T04:56:43.400Z,29.97
2022-08-18T04:59:12.137Z,36.50
2022-08-18T05:01:48.144Z,28.63
2022-08-18T05:04:16.713Z,29.73
2022-08-18T05:06:44.341Z,27.60
2022-08-18T05:09:12.425Z,31.80
2022-08-18T05:11:44.405Z,35.60
2022-08-18T05:14:11.603Z,42.73
2022-08-18T05:16:44.265Z,35.47
2022-08-18T05:19:17.215Z,36.93
2022-08-18T05:21:46.130Z,34.73
2022-08-18T05:24:17.712Z,38.10
2022-08-18T05:26:44.497Z,37.60
2022-08-18T05:29:18.723Z,35.83
2022-08-18T05:31:47.411Z,32.17
2022-08-18T05:34:13.973Z,29.60
2022-08-18T05:36:49.129Z,34.53
2022-08-18T05:39:21.739Z,37.00
2022-08-18T05:41:52.807Z,32.60
2022-08-18T05:44:23.822Z,32.53
2022-08-18T05:46:56.294Z,29.93
2022-08-18T05:49:24.794Z,34.97
2022-08-18T05:52:04.205Z,30.53
2022-08-18T05:54:58.878Z,32.07
2022-08-18T05:57:28.205Z,36.60
2022-08-18T05:59:55.189Z,33.93
2022-08-18T06:02:33.074Z,34.63
2022-08-18T06:05:14.037Z,39.17
2022-08-18T06:07:47.005Z,28.70
2022-08-18T06:10:14.253Z,34.07
2022-08-18T06:12:47.091Z,31.67
2022-08-18T06:15:48.922Z,35.20
2022-08-18T06:18:43.267Z,31.30
2022-08-18T06:21:16.318Z,34.73
2022-08-18T06:24:00.829Z,32.50
2022-08-18T06:26:41.345Z,24.90
2022-08-18T06:29:21.613Z,24.73
2022-08-18T06:32:10.439Z,26.17
2022-08-18T06:35:11.087Z,25.00
2022-08-18T06:38:18.288Z,22.87
2022-08-18T06:40:47.421Z,21.65
2022-08-18T06:43:15.963Z,18.45
2022-08-18T06:45:45.573Z,20.88
2022-08-18T06:48:52.633Z,20.98
2022-08-18T06:51:21.901Z,18.40
2022-08-18T06:53:58.794Z,19.15
2022-08-18T06:56:32.874Z,16.70
2022-08-18T06:59:24.818Z,14.77
2022-08-18T07:01:54.694Z,21.25
2022-08-18T07:04:39.269Z,20.25
2022-08-18T07:07:39.649Z,19.67
2022-08-18T07:10:37.184Z,13.43
2022-08-18T07:13:12.795Z,18.17
2022-08-18T07:15:40.407Z,20.52
2022-08-18T07:18:08.672Z,15.20
2022-08-18T07:20:53.799Z,14.57
2022-08-18T07:23:30.325Z,12.50
2022-08-18T07:26:17.151Z,12.38
2022-08-18T07:28:49.002Z,20.05
2022-08-18T07:31:36.384Z,15.57
2022-08-18T07:34:16.356Z,24.80
2022-08-18T07:36:50.633Z,16.95
2022-08-18T07:39:28.236Z,16.33
2022-08-18T07:42:09.790Z,18.98
2022-08-18T07:45:00.982Z,16.40
2022-08-18T07:47:33.559Z,15.02
2022-08-18T07:50:36.062Z,12.00
2022-08-18T07:52:58.031Z,13.05
2022-08-18T07:55:29.844Z,17.02
2022-08-18T07:58:07.210Z,11.15
2022-08-18T08:00:59.250Z,16.85
2022-08-18T08:03:44.922Z,16.63
2022-08-18T08:06:29.664Z,16.67
2022-08-18T08:09:34.480Z,19.85
2022-08-18T08:12:31.159Z,19.58
2022-08-18T08:15:33.223Z,15.00
2022-08-18T08:18:06.447Z,13.70
2022-08-18T08:20:58.775Z,13.48
2022-08-18T08:23:43.233Z,15.60
2022-08-18T08:26:39.079Z,17.75
2022-08-18T08:29:27.199Z,15.68
2022-08-18T08:32:11.535Z,14.50
2022-08-18T08:34:59.186Z,14.55
2022-08-18T08:38:04.814Z,18.13
2022-08-18T08:40:51.174Z,11.88
2022-08-18T08:43:24.737Z,16.08
2022-08-18T08:46:06.542Z,11.70
2022-08-18T08:48:36.619Z,13.60
2022-08-18T08:51:26.853Z,16.92
2022-08-18T08:54:06.667Z,17.77
2022-08-18T08:56:43.478Z,17.58
2022-08-18T08:59:12.839Z,18.77
2022-08-18T09:02:08.844Z,14.45
2022-08-18T09:05:08.326Z,12.05
2022-08-18T09:07:46.173Z,19.90
2022-08-18T09:10:30.820Z,18.52
2022-08-18T09:13:05.404Z,15.07
2022-08-18T09:19:05.810Z,15.65
2022-08-18T09:21:40.770Z,11.73
2022-08-18T09:24:21.089Z,17.50
2022-08-18T09:26:53.129Z,17.10
2022-08-18T09:29:45.737Z,13.80
2022-08-18T09:32:18.426Z,20.38
2022-08-18T09:35:07.878Z,14.18
2022-08-18T09:38:21.685Z,12.57
2022-08-18T09:41:15.448Z,16.08
2022-08-18T09:44:12.126Z,18.65
2022-08-18T09:46:44.654Z,16.75
2022-08-18T09:49:23.221Z,19.92
2022-08-18T09:51:51.222Z,16.83
2022-08-18T09:54:26.668Z,16.67
2022-08-18T09:57:19.582Z,14.95
2022-08-18T09:59:47.801Z,15.52
2022-08-18T10:02:28.728Z,16.70
2022-08-18T10:05:20.136Z,17.90
2022-08-18T10:08:05.626Z,14.27
2022-08-18T10:10:59.290Z,14.43
2022-08-18T10:13:48.955Z,13.50
2022-08-18T10:16:57.666Z,21.10
2022-08-18T10:22:38.722Z,13.20
2022-08-18T10:25:22.058Z,12.47
2022-08-18T10:27:54.383Z,12.05
2022-08-18T10:30:34.399Z,11.23
2022-08-18T10:35:58.889Z,11.50
2022-08-18T10:38:39.158Z,13.13
2022-08-18T10:41:15.598Z,13.15
2022-08-18T10:43:45.576Z,14.68
2022-08-18T10:46:39.645Z,14.18
2022-08-18T10:49:13.424Z,13.88
2022-08-18T10:51:59.247Z,14.13
2022-08-18T10:54:54.891Z,11.25
2022-08-18T10:57:37.657Z,10.35
2022-08-18T11:00:13.642Z,10.82
2022-08-18T11:03:29.833Z,12.85
2022-08-18T11:05:46.922Z,11.93
2022-08-18T11:08:17.354Z,9.27
2022-08-18T11:11:33.210Z,17.63
2022-08-18T11:14:02.629Z,10.18
2022-08-18T11:19:26.890Z,8.68
2022-08-18T11:21:53.918Z,8.05
2022-08-18T11:24:26.770Z,10.43
2022-08-18T11:26:59.397Z,12.75
2022-08-18T11:29:26.890Z,11.57
2022-08-18T11:32:01.951Z,9.60
2022-08-18T11:34:41.173Z,14.90
2022-08-18T11:37:48.938Z,11.85
2022-08-18T11:40:52.022Z,10.07
2022-08-18T11:46:29.970Z,10.32
2022-08-18T11:49:01.909Z,14.07
2022-08-18T11:51:33.462Z,10.13
2022-08-18T11:54:04.960Z,9.32
2022-08-18T11:56:37.751Z,14.32
2022-08-18T11:59:07.981Z,11.68
2022-08-18T12:01:41.844Z,8.55
2022-08-18T12:04:22.154Z,11.20
2022-08-18T12:07:05.593Z,10.93
2022-08-18T12:10:17.044Z,13.75
2022-08-18T12:12:32.546Z,10.30
2022-08-18T12:15:24.139Z,11.02
2022-08-18T12:17:54.491Z,13.73
2022-08-18T12:20:22.059Z,9.98
2022-08-18T12:22:49.959Z,14.13
2022-08-18T12:25:25.134Z,8.38
2022-08-18T12:27:55.187Z,9.85
2022-08-18T12:30:21.796Z,11.15
2022-08-18T12:32:50.712Z,13.38
2022-08-18T12:35:22.194Z,12.02
2022-08-18T12:40:36.952Z,12.20
2022-08-18T12:43:03.998Z,12.43
2022-08-18T12:45:32.861Z,17.92
2022-08-18T12:48:04.887Z,10.25
2022-08-18T12:50:42.673Z,12.57
2022-08-18T12:53:29.596Z,13.55
2022-08-18T12:56:07.170Z,11.50
2022-08-18T12:58:36.438Z,11.80
2022-08-18T13:01:03.885Z,11.63
2022-08-18T13:03:31.417Z,10.53
2022-08-18T13:06:02.506Z,11.18
2022-08-18T13:08:30.611Z,10.32
2022-08-18T13:11:00.455Z,13.73
2022-08-18T13:13:42.772Z,12.48
2022-08-18T13:16:09.719Z,11.38
2022-08-18T13:18:43.177Z,14.32
2022-08-18T13:21:12.430Z,7.75
2022-08-18T13:23:40.089Z,11.85
2022-08-18T13:26:09.541Z,12.23
2022-08-18T13:28:51.557Z,9.18
2022-08-18T13:31:23.323Z,8.75
2022-08-18T13:33:56.258Z,11.85
2022-08-18T13:36:25.177Z,13.57
2022-08-18T13:38:55.491Z,11.88
2022-08-18T13:41:23.407Z,8.82
2022-08-18T13:43:51.311Z,14.00
2022-08-18T13:46:24.335Z,9.63
2022-08-18T13:49:02.339Z,16.35
2022-08-18T13:51:29.752Z,10.50
2022-08-18T13:54:26.434Z,8.45
2022-08-18T13:56:51.812Z,10.20
2022-08-18T13:59:20.469Z,13.57
2022-08-18T14:01:52.157Z,10.30
2022-08-18T14:04:21.140Z,10.07
2022-08-18T14:06:56.914Z,7.57
2022-08-18T14:09:37.097Z,11.10
2022-08-18T14:12:07.207Z,14.45
2022-08-18T14:14:42.663Z,11.38
2022-08-18T14:17:09.406Z,14.93
2022-08-18T14:19:54.576Z,10.80
2022-08-18T14:22:42.648Z,13.55
2022-08-18T14:25:28.077Z,15.93
2022-08-18T14:27:56.984Z,11.05
2022-08-18T14:30:24.011Z,10.85
2022-08-18T14:32:50.705Z,13.32
2022-08-18T14:36:04.523Z,9.30
2022-08-18T14:38:05.681Z,12.45
2022-08-18T14:40:33.462Z,12.63
2022-08-18T14:43:01.957Z,8.02
2022-08-18T14:45:35.192Z,9.85
2022-08-18T14:48:06.688Z,15.45
2022-08-18T14:50:35.139Z,15.98
2022-08-18T14:53:02.039Z,10.30
2022-08-18T14:55:30.513Z,12.98
2022-08-18T14:57:59.348Z,14.38
2022-08-18T15:00:27.279Z,16.00
2022-08-18T15:02:54.148Z,11.27
2022-08-18T15:05:24.785Z,10.02
2022-08-18T15:07:52.675Z,10.10
2022-08-18T15:10:23.772Z,15.60
2022-08-18T15:12:55.007Z,17.63
2022-08-18T15:15:22.463Z,10.35
2022-08-18T15:17:52.924Z,9.93
2022-08-18T15:20:23.994Z,11.43
2022-08-18T15:23:18.464Z,10.50
2022-08-18T15:25:52.088Z,10.43
2022-08-18T15:28:21.626Z,11.52
2022-08-18T15:30:51.725Z,9.43
2022-08-18T15:33:23.765Z,11.48
2022-08-18T15:35:52.143Z,8.63
2022-08-18T15:38:20.298Z,13.73
2022-08-18T15:40:49.472Z,10.55
2022-08-18T15:43:28.993Z,13.50
2022-08-18T15:45:59.789Z,8.40
2022-08-18T15:48:28.413Z,10.93
2022-08-18T15:50:55.763Z,12.52
2022-08-18T15:53:30.018Z,13.30
2022-08-18T15:55:57.930Z,10.65
2022-08-18T15:58:26.953Z,11.93
2022-08-18T16:00:56.579Z,17.17
2022-08-18T16:03:25.528Z,11.93
2022-08-18T16:05:53.704Z,10.30
2022-08-18T16:08:25.273Z,13.05
2022-08-18T16:10:53.457Z,10.18
2022-08-18T16:13:20.469Z,8.98
2022-08-18T16:15:48.324Z,12.02
2022-08-18T16:18:19.318Z,10.18
2022-08-18T16:20:45.810Z,10.18
2022-08-18T16:23:12.828Z,10.27
2022-08-18T16:25:40.476Z,13.07
2022-08-18T16:28:07.441Z,15.15
2022-08-18T16:30:34.536Z,14.43
2022-08-18T16:33:05.435Z,13.63
2022-08-18T16:35:33.614Z,13.82
2022-08-18T16:38:10.432Z,19.35
2022-08-18T16:40:37.738Z,15.68
2022-08-18T16:43:05.132Z,13.00
2022-08-18T16:45:33.652Z,12.43
2022-08-18T16:48:00.575Z,15.55
2022-08-18T16:50:28.065Z,13.55
2022-08-18T16:52:54.671Z,12.00
2022-08-18T16:55:21.461Z,12.27
2022-08-18T16:58:06.792Z,10.32
2022-08-18T17:00:55.069Z,14.93
2022-08-18T17:03:41.736Z,14.32
2022-08-18T17:06:12.110Z,14.73
2022-08-18T17:08:38.831Z,16.67
2022-08-18T17:11:09.275Z,11.75
2022-08-18T17:13:37.135Z,16.13
2022-08-18T17:16:03.919Z,14.05
2022-08-18T17:18:30.528Z,16.13
2022-08-18T17:21:01.739Z,13.40
2022-08-18T17:23:28.289Z,12.63
2022-08-18T17:25:55.870Z,16.90
2022-08-18T17:28:30.004Z,22.10
2022-08-18T17:30:59.329Z,13.52
2022-08-18T17:33:28.966Z,18.00
2022-08-18T17:36:00.125Z,18.77
2022-08-18T17:38:40.200Z,15.25
2022-08-18T17:41:07.451Z,17.08
2022-08-18T17:46:25.991Z,16.30
2022-08-18T17:49:11.756Z,17.70
2022-08-18T17:51:43.493Z,15.13
2022-08-18T17:54:33.263Z,12.57
2022-08-18T17:57:23.612Z,18.87
2022-08-18T17:59:55.959Z,13.73
2022-08-18T18:02:29.862Z,14.37
2022-08-18T18:04:59.689Z,14.73
2022-08-18T18:07:38.282Z,11.00
2022-08-18T18:10:15.383Z,15.93
2022-08-18T18:12:42.362Z,13.20
2022-08-18T18:15:12.087Z,13.73
2022-08-18T18:17:40.979Z,14.50
2022-08-18T18:20:19.632Z,15.50
2022-08-18T18:22:46.234Z,13.97
2022-08-18T18:25:13.891Z,14.20
2022-08-18T18:27:43.018Z,19.67
2022-08-18T18:30:27.401Z,13.48
2022-08-18T18:33:03.639Z,16.97
2022-08-18T18:35:34.074Z,16.10
2022-08-18T18:38:03.913Z,13.50
2022-08-18T18:40:54.040Z,16.67
2022-08-18T18:43:29.092Z,17.20
2022-08-18T18:46:18.904Z,14.30
2022-08-18T18:48:58.559Z,14.87
2022-08-18T18:51:50.792Z,16.77
2022-08-18T18:54:40.334Z,16.07
2022-08-18T18:57:14.688Z,17.23
2022-08-18T18:59:59.173Z,16.73
2022-08-18T19:02:33.435Z,14.33
2022-08-18T19:05:07.652Z,15.90
2022-08-18T19:07:49.150Z,17.93
2022-08-18T19:10:29.701Z,14.10
2022-08-18T19:13:03.594Z,17.63
2022-08-18T19:15:34.262Z,19.97
2022-08-18T19:18:12.150Z,16.47
2022-08-18T19:21:49.321Z,22.10
2022-08-18T19:23:44.625Z,16.50
2022-08-18T19:26:14.392Z,16.03
2022-08-18T19:29:12.770Z,19.07
2022-08-18T19:31:39.263Z,19.57
2022-08-18T19:34:17.249Z,12.70
2022-08-18T19:36:59.742Z,18.07
2022-08-18T19:39:33.248Z,16.40
2022-08-18T19:42:21.241Z,20.23
2022-08-18T19:45:15.415Z,11.50
2022-08-18T19:47:58.355Z,18.77
2022-08-18T19:50:39.450Z,17.63
2022-08-18T19:53:29.866Z,14.63
2022-08-18T19:56:25.801Z,21.60
2022-08-18T19:59:18.257Z,19.87
2022-08-18T20:01:54.749Z,17.87
2022-08-18T20:04:39.806Z,15.97
2022-08-18T20:07:29.300Z,15.13
2022-08-18T20:10:16.850Z,15.27
2022-08-18T20:13:25.503Z,12.73
2022-08-18T20:16:13.644Z,16.90
2022-08-18T20:18:45.642Z,16.13
2022-08-18T20:21:19.649Z,19.03
2022-08-18T20:24:05.973Z,17.37
2022-08-18T20:26:35.144Z,18.33
2022-08-18T20:29:02.256Z,21.33
2022-08-18T20:31:46.330Z,21.20
2022-08-18T20:34:14.726Z,16.37
2022-08-18T20:36:43.306Z,16.03
2022-08-18T20:39:42.481Z,19.47
2022-08-18T20:42:21.213Z,18.27
2022-08-18T20:44:58.051Z,18.00
2022-08-18T20:47:42.718Z,15.20
2022-08-18T20:50:48.579Z,18.53
2022-08-18T20:53:49.911Z,17.00
2022-08-18T20:56:32.572Z,23.07
2022-08-18T20:59:18.437Z,20.40
2022-08-18T21:01:54.173Z,16.23
2022-08-18T21:04:47.639Z,17.23
2022-08-18T21:07:36.400Z,17.47
2022-08-18T21:10:12.733Z,15.30
2022-08-18T21:12:52.653Z,13.93
2022-08-18T21:15:20.606Z,19.73
2022-08-18T21:18:00.789Z,16.33
2022-08-18T21:20:28.866Z,15.23
2022-08-18T21:23:10.240Z,18.30
2022-08-18T21:25:36.765Z,20.57
2022-08-18T21:28:05.761Z,13.33
2022-08-18T21:30:32.418Z,15.47
2022-08-18T21:32:58.969Z,15.43
2022-08-18T21:35:34.209Z,15.13
2022-08-18T21:38:12.365Z,20.17
2022-08-18T21:40:40.599Z,13.30
2022-08-18T21:43:08.950Z,14.93
2022-08-18T21:45:47.705Z,17.37
2022-08-18T21:48:14.913Z,14.33
2022-08-18T21:50:53.246Z,15.97
2022-08-18T21:53:25.764Z,20.53
2022-08-18T21:55:56.929Z,14.10
2022-08-18T21:58:39.071Z,15.63
2022-08-18T22:01:11.304Z,19.20
2022-08-18T22:03:57.141Z,18.53
2022-08-18T22:06:40.964Z,16.60
2022-08-18T22:09:28.775Z,14.57
2022-08-18T22:12:37.490Z,17.43
2022-08-18T22:15:11.581Z,20.27
2022-08-18T22:17:45.144Z,23.73
2022-08-18T22:20:35.171Z,18.03
2022-08-18T22:23:31.341Z,17.33
2022-08-18T22:26:19.075Z,16.60
2022-08-18T22:28:51.931Z,18.07
2022-08-18T22:31:21.261Z,20.20
2022-08-18T22:33:48.201Z,13.57
2022-08-18T22:36:17.837Z,19.30
2022-08-18T22:38:45.362Z,14.00
2022-08-18T22:41:12.011Z,17.63
2022-08-18T22:43:38.503Z,16.40
2022-08-18T22:46:05.095Z,15.10
2022-08-18T22:48:31.716Z,15.67
2022-08-18T22:50:58.479Z,22.83
2022-08-18T22:53:26.037Z,18.13
2022-08-18T22:55:53.271Z,19.03
2022-08-18T22:58:27.966Z,16.13
2022-08-18T23:01:01.066Z,18.67
2022-08-18T23:03:32.487Z,10.70
2022-08-18T23:06:09.399Z,16.50
2022-08-18T23:08:55.081Z,17.70
2022-08-18T23:11:25.574Z,15.50
2022-08-18T23:13:52.105Z,17.63
2022-08-18T23:16:31.589Z,20.73
2022-08-18T23:19:02.004Z,20.77
2022-08-18T23:21:34.466Z,16.37
2022-08-18T23:24:01.677Z,16.10
2022-08-18T23:26:29.659Z,13.60
2022-08-18T23:28:57.833Z,15.47
2022-08-18T23:31:24.405Z,17.57
2022-08-18T23:33:51.355Z,20.13
2022-08-18T23:36:17.860Z,16.47
2022-08-18T23:38:44.775Z,15.13
2022-08-18T23:41:13.173Z,15.37
2022-08-18T23:43:39.915Z,15.57
2022-08-18T23:46:15.727Z,21.73
2022-08-18T23:48:44.436Z,16.83
2022-08-18T23:51:10.971Z,16.03
2022-08-18T23:53:38.184Z,21.07
2022-08-18T23:56:06.137Z,16.03
2022-08-18T23:58:32.631Z,19.33
